sensor_id;sensor_type;location;lat;lon;timestamp;pressure;altitude;pressure_sealevel;temperature
4421;BMP180;11824;51.178;13.546;2023-02-18T00:01:42;100448.00;;;9.90
4421;BMP180;11824;51.178;13.546;2023-02-18T00:04:10;100449.00;;;9.90
4421;BMP180;11824;51.178;13.546;2023-02-18T00:06:38;100452.00;;;9.80
4421;BMP180;11824;51.178;13.546;2023-02-18T00:09:06;100439.00;;;9.70
4421;BMP180;11824;51.178;13.546;2023-02-18T00:11:35;100438.00;;;9.60
4421;BMP180;11824;51.178;13.546;2023-02-18T00:14:05;100448.00;;;9.50
4421;BMP180;11824;51.178;13.546;2023-02-18T00:16:32;100436.00;;;9.50
4421;BMP180;11824;51.178;13.546;2023-02-18T00:19:02;100435.00;;;9.40
4421;BMP180;11824;51.178;13.546;2023-02-18T00:21:31;100427.00;;;9.40
4421;BMP180;11824;51.178;13.546;2023-02-18T00:23:59;100432.00;;;9.30
4421;BMP180;11824;51.178;13.546;2023-02-18T00:26:26;100441.00;;;9.20
4421;BMP180;11824;51.178;13.546;2023-02-18T00:28:54;100444.00;;;9.20
4421;BMP180;11824;51.178;13.546;2023-02-18T00:31:23;100434.00;;;9.10
4421;BMP180;11824;51.178;13.546;2023-02-18T00:33:50;100444.00;;;9.10
4421;BMP180;11824;51.178;13.546;2023-02-18T00:36:20;100447.00;;;9.10
4421;BMP180;11824;51.178;13.546;2023-02-18T00:38:49;100455.00;;;9.10
4421;BMP180;11824;51.178;13.546;2023-02-18T00:41:17;100463.00;;;9.10
4421;BMP180;11824;51.178;13.546;2023-02-18T00:43:45;100458.00;;;9.10
4421;BMP180;11824;51.178;13.546;2023-02-18T00:46:13;100455.00;;;9.00
4421;BMP180;11824;51.178;13.546;2023-02-18T00:48:41;100471.00;;;9.00
4421;BMP180;11824;51.178;13.546;2023-02-18T00:51:08;100473.00;;;9.00
4421;BMP180;11824;51.178;13.546;2023-02-18T00:53:36;100474.00;;;9.00
4421;BMP180;11824;51.178;13.546;2023-02-18T00:56:05;100475.00;;;9.00
4421;BMP180;11824;51.178;13.546;2023-02-18T00:58:34;100480.00;;;9.00
4421;BMP180;11824;51.178;13.546;2023-02-18T01:01:02;100470.00;;;9.00
4421;BMP180;11824;51.178;13.546;2023-02-18T01:03:29;100479.00;;;8.90
4421;BMP180;11824;51.178;13.546;2023-02-18T01:05:56;100477.00;;;9.00
4421;BMP180;11824;51.178;13.546;2023-02-18T01:08:24;100478.00;;;8.90
4421;BMP180;11824;51.178;13.546;2023-02-18T01:10:54;100483.00;;;8.90
4421;BMP180;11824;51.178;13.546;2023-02-18T01:13:23;100473.00;;;8.90
4421;BMP180;11824;51.178;13.546;2023-02-18T01:15:51;100475.00;;;8.90
4421;BMP180;11824;51.178;13.546;2023-02-18T01:18:18;100475.00;;;8.90
4421;BMP180;11824;51.178;13.546;2023-02-18T01:20:46;100479.00;;;8.90
4421;BMP180;11824;51.178;13.546;2023-02-18T01:23:14;100477.00;;;9.00
4421;BMP180;11824;51.178;13.546;2023-02-18T01:25:41;100476.00;;;9.00
4421;BMP180;11824;51.178;13.546;2023-02-18T01:28:09;100474.00;;;8.90
4421;BMP180;11824;51.178;13.546;2023-02-18T01:30:38;100463.00;;;8.90
4421;BMP180;11824;51.178;13.546;2023-02-18T01:33:06;100468.00;;;8.90
4421;BMP180;11824;51.178;13.546;2023-02-18T01:35:33;100476.00;;;8.90
4421;BMP180;11824;51.178;13.546;2023-02-18T01:38:00;100472.00;;;8.90
4421;BMP180;11824;51.178;13.546;2023-02-18T01:40:29;100468.00;;;8.90
4421;BMP180;11824;51.178;13.546;2023-02-18T01:42:57;100472.00;;;8.80
4421;BMP180;11824;51.178;13.546;2023-02-18T01:45:51;100474.00;;;8.80
4421;BMP180;11824;51.178;13.546;2023-02-18T01:48:25;100474.00;;;8.80
4421;BMP180;11824;51.178;13.546;2023-02-18T01:50:57;100473.00;;;8.80
4421;BMP180;11824;51.178;13.546;2023-02-18T01:53:27;100472.00;;;8.70
4421;BMP180;11824;51.178;13.546;2023-02-18T01:55:57;100469.00;;;8.70
4421;BMP180;11824;51.178;13.546;2023-02-18T01:58:26;100466.00;;;8.70
4421;BMP180;11824;51.178;13.546;2023-02-18T02:00:54;100463.00;;;8.60
4421;BMP180;11824;51.178;13.546;2023-02-18T02:03:21;100471.00;;;8.60
4421;BMP180;11824;51.178;13.546;2023-02-18T02:05:49;100475.00;;;8.60
4421;BMP180;11824;51.178;13.546;2023-02-18T02:08:16;100476.00;;;8.60
4421;BMP180;11824;51.178;13.546;2023-02-18T02:10:57;100494.00;;;8.60
4421;BMP180;11824;51.178;13.546;2023-02-18T02:13:32;100483.00;;;8.60
4421;BMP180;11824;51.178;13.546;2023-02-18T02:16:07;100486.00;;;8.50
4421;BMP180;11824;51.178;13.546;2023-02-18T02:18:51;100484.00;;;8.50
4421;BMP180;11824;51.178;13.546;2023-02-18T02:24:53;100484.00;;;8.50
4421;BMP180;11824;51.178;13.546;2023-02-18T02:27:25;100475.00;;;8.50
4421;BMP180;11824;51.178;13.546;2023-02-18T02:36:13;100467.00;;;8.50
4421;BMP180;11824;51.178;13.546;2023-02-18T02:38:52;100476.00;;;8.50
4421;BMP180;11824;51.178;13.546;2023-02-18T02:41:33;100477.00;;;8.50
4421;BMP180;11824;51.178;13.546;2023-02-18T02:44:10;100486.00;;;8.50
4421;BMP180;11824;51.178;13.546;2023-02-18T02:46:43;100477.00;;;8.50
4421;BMP180;11824;51.178;13.546;2023-02-18T02:49:18;100477.00;;;8.60
4421;BMP180;11824;51.178;13.546;2023-02-18T02:51:53;100466.00;;;8.60
4421;BMP180;11824;51.178;13.546;2023-02-18T02:54:26;100467.00;;;8.60
4421;BMP180;11824;51.178;13.546;2023-02-18T02:57:06;100457.00;;;8.60
4421;BMP180;11824;51.178;13.546;2023-02-18T02:59:36;100466.00;;;8.70
4421;BMP180;11824;51.178;13.546;2023-02-18T03:02:17;100466.00;;;8.70
4421;BMP180;11824;51.178;13.546;2023-02-18T03:05:07;100465.00;;;8.80
4421;BMP180;11824;51.178;13.546;2023-02-18T03:08:12;100461.00;;;8.80
4421;BMP180;11824;51.178;13.546;2023-02-18T03:10:53;100469.00;;;8.90
4421;BMP180;11824;51.178;13.546;2023-02-18T03:13:32;100480.00;;;8.90
4421;BMP180;11824;51.178;13.546;2023-02-18T03:16:10;100460.00;;;8.90
4421;BMP180;11824;51.178;13.546;2023-02-18T03:18:42;100452.00;;;8.90
4421;BMP180;11824;51.178;13.546;2023-02-18T03:21:17;100461.00;;;9.00
4421;BMP180;11824;51.178;13.546;2023-02-18T03:23:54;100464.00;;;9.00
4421;BMP180;11824;51.178;13.546;2023-02-18T03:26:24;100453.00;;;9.00
4421;BMP180;11824;51.178;13.546;2023-02-18T03:28:55;100467.00;;;9.00
4421;BMP180;11824;51.178;13.546;2023-02-18T03:31:27;100467.00;;;9.00
4421;BMP180;11824;51.178;13.546;2023-02-18T03:34:00;100467.00;;;9.00
4421;BMP180;11824;51.178;13.546;2023-02-18T03:36:28;100463.00;;;9.00
4421;BMP180;11824;51.178;13.546;2023-02-18T03:39:00;100462.00;;;9.00
4421;BMP180;11824;51.178;13.546;2023-02-18T03:41:29;100467.00;;;9.00
4421;BMP180;11824;51.178;13.546;2023-02-18T03:44:00;100462.00;;;9.10
4421;BMP180;11824;51.178;13.546;2023-02-18T03:46:29;100460.00;;;9.10
4421;BMP180;11824;51.178;13.546;2023-02-18T03:48:57;100462.00;;;9.10
4421;BMP180;11824;51.178;13.546;2023-02-18T03:51:24;100457.00;;;9.10
4421;BMP180;11824;51.178;13.546;2023-02-18T03:53:51;100452.00;;;9.10
4421;BMP180;11824;51.178;13.546;2023-02-18T03:56:20;100464.00;;;9.10
4421;BMP180;11824;51.178;13.546;2023-02-18T03:58:47;100473.00;;;9.10
4421;BMP180;11824;51.178;13.546;2023-02-18T04:01:15;100463.00;;;9.10
4421;BMP180;11824;51.178;13.546;2023-02-18T04:03:42;100461.00;;;9.10
4421;BMP180;11824;51.178;13.546;2023-02-18T04:06:10;100463.00;;;9.10
4421;BMP180;11824;51.178;13.546;2023-02-18T04:08:37;100463.00;;;9.10
4421;BMP180;11824;51.178;13.546;2023-02-18T04:11:05;100478.00;;;9.10
4421;BMP180;11824;51.178;13.546;2023-02-18T04:13:33;100469.00;;;9.10
4421;BMP180;11824;51.178;13.546;2023-02-18T04:16:00;100448.00;;;9.00
4421;BMP180;11824;51.178;13.546;2023-02-18T04:18:27;100463.00;;;9.10
4421;BMP180;11824;51.178;13.546;2023-02-18T04:20:55;100458.00;;;9.10
4421;BMP180;11824;51.178;13.546;2023-02-18T04:23:22;100476.00;;;9.10
4421;BMP180;11824;51.178;13.546;2023-02-18T04:25:50;100471.00;;;9.10
4421;BMP180;11824;51.178;13.546;2023-02-18T04:28:17;100457.00;;;9.10
4421;BMP180;11824;51.178;13.546;2023-02-18T04:30:46;100463.00;;;9.10
4421;BMP180;11824;51.178;13.546;2023-02-18T04:33:15;100451.00;;;9.10
4421;BMP180;11824;51.178;13.546;2023-02-18T04:35:42;100440.00;;;9.10
4421;BMP180;11824;51.178;13.546;2023-02-18T04:38:10;100441.00;;;9.10
4421;BMP180;11824;51.178;13.546;2023-02-18T04:40:37;100446.00;;;9.10
4421;BMP180;11824;51.178;13.546;2023-02-18T04:43:05;100445.00;;;9.10
4421;BMP180;11824;51.178;13.546;2023-02-18T04:45:32;100445.00;;;9.10
4421;BMP180;11824;51.178;13.546;2023-02-18T04:48:00;100453.00;;;9.10
4421;BMP180;11824;51.178;13.546;2023-02-18T04:50:28;100452.00;;;9.10
4421;BMP180;11824;51.178;13.546;2023-02-18T04:52:55;100466.00;;;9.10
4421;BMP180;11824;51.178;13.546;2023-02-18T04:55:22;100469.00;;;9.10
4421;BMP180;11824;51.178;13.546;2023-02-18T04:57:50;100472.00;;;9.10
4421;BMP180;11824;51.178;13.546;2023-02-18T05:00:19;100465.00;;;9.10
4421;BMP180;11824;51.178;13.546;2023-02-18T05:02:46;100457.00;;;9.10
4421;BMP180;11824;51.178;13.546;2023-02-18T05:05:15;100460.00;;;9.10
4421;BMP180;11824;51.178;13.546;2023-02-18T05:07:42;100449.00;;;9.10
4421;BMP180;11824;51.178;13.546;2023-02-18T05:10:14;100451.00;;;9.10
4421;BMP180;11824;51.178;13.546;2023-02-18T05:12:41;100441.00;;;9.20
4421;BMP180;11824;51.178;13.546;2023-02-18T05:15:09;100442.00;;;9.20
4421;BMP180;11824;51.178;13.546;2023-02-18T05:17:36;100443.00;;;9.20
4421;BMP180;11824;51.178;13.546;2023-02-18T05:20:05;100438.00;;;9.20
4421;BMP180;11824;51.178;13.546;2023-02-18T05:22:36;100435.00;;;9.20
4421;BMP180;11824;51.178;13.546;2023-02-18T05:25:05;100440.00;;;9.20
4421;BMP180;11824;51.178;13.546;2023-02-18T05:27:33;100430.00;;;9.20
4421;BMP180;11824;51.178;13.546;2023-02-18T05:30:00;100432.00;;;9.20
4421;BMP180;11824;51.178;13.546;2023-02-18T05:32:28;100422.00;;;9.20
4421;BMP180;11824;51.178;13.546;2023-02-18T05:34:55;100422.00;;;9.20
4421;BMP180;11824;51.178;13.546;2023-02-18T05:37:22;100425.00;;;9.20
4421;BMP180;11824;51.178;13.546;2023-02-18T05:39:50;100430.00;;;9.20
4421;BMP180;11824;51.178;13.546;2023-02-18T05:42:17;100420.00;;;9.20
4421;BMP180;11824;51.178;13.546;2023-02-18T05:44:45;100415.00;;;9.20
4421;BMP180;11824;51.178;13.546;2023-02-18T05:47:12;100415.00;;;9.20
4421;BMP180;11824;51.178;13.546;2023-02-18T05:49:41;100411.00;;;9.20
4421;BMP180;11824;51.178;13.546;2023-02-18T05:52:09;100420.00;;;9.20
4421;BMP180;11824;51.178;13.546;2023-02-18T05:54:37;100409.00;;;9.20
4421;BMP180;11824;51.178;13.546;2023-02-18T05:57:06;100408.00;;;9.20
4421;BMP180;11824;51.178;13.546;2023-02-18T05:59:33;100404.00;;;9.20
4421;BMP180;11824;51.178;13.546;2023-02-18T06:02:00;100408.00;;;9.20
4421;BMP180;11824;51.178;13.546;2023-02-18T06:04:28;100401.00;;;9.20
4421;BMP180;11824;51.178;13.546;2023-02-18T06:06:55;100408.00;;;9.20
4421;BMP180;11824;51.178;13.546;2023-02-18T06:09:22;100405.00;;;9.20
4421;BMP180;11824;51.178;13.546;2023-02-18T06:11:50;100395.00;;;9.20
4421;BMP180;11824;51.178;13.546;2023-02-18T06:14:18;100412.00;;;9.20
4421;BMP180;11824;51.178;13.546;2023-02-18T06:16:45;100410.00;;;9.20
4421;BMP180;11824;51.178;13.546;2023-02-18T06:19:12;100396.00;;;9.20
4421;BMP180;11824;51.178;13.546;2023-02-18T06:21:40;100399.00;;;9.20
4421;BMP180;11824;51.178;13.546;2023-02-18T06:24:07;100390.00;;;9.20
4421;BMP180;11824;51.178;13.546;2023-02-18T06:26:34;100400.00;;;9.20
4421;BMP180;11824;51.178;13.546;2023-02-18T06:29:02;100400.00;;;9.20
4421;BMP180;11824;51.178;13.546;2023-02-18T06:31:30;100400.00;;;9.20
4421;BMP180;11824;51.178;13.546;2023-02-18T06:33:57;100393.00;;;9.20
4421;BMP180;11824;51.178;13.546;2023-02-18T06:36:25;100398.00;;;9.20
4421;BMP180;11824;51.178;13.546;2023-02-18T06:38:52;100392.00;;;9.20
4421;BMP180;11824;51.178;13.546;2023-02-18T06:41:22;100391.00;;;9.20
4421;BMP180;11824;51.178;13.546;2023-02-18T06:43:50;100382.00;;;9.20
4421;BMP180;11824;51.178;13.546;2023-02-18T06:46:18;100381.00;;;9.20
4421;BMP180;11824;51.178;13.546;2023-02-18T06:48:46;100382.00;;;9.20
4421;BMP180;11824;51.178;13.546;2023-02-18T06:51:13;100379.00;;;9.20
4421;BMP180;11824;51.178;13.546;2023-02-18T06:53:41;100376.00;;;9.20
4421;BMP180;11824;51.178;13.546;2023-02-18T06:56:09;100376.00;;;9.20
4421;BMP180;11824;51.178;13.546;2023-02-18T06:58:37;100374.00;;;9.20
4421;BMP180;11824;51.178;13.546;2023-02-18T07:01:05;100372.00;;;9.20
4421;BMP180;11824;51.178;13.546;2023-02-18T07:03:32;100375.00;;;9.30
4421;BMP180;11824;51.178;13.546;2023-02-18T07:06:00;100374.00;;;9.30
4421;BMP180;11824;51.178;13.546;2023-02-18T07:08:28;100366.00;;;9.30
4421;BMP180;11824;51.178;13.546;2023-02-18T07:10:56;100368.00;;;9.30
4421;BMP180;11824;51.178;13.546;2023-02-18T07:13:23;100356.00;;;9.30
4421;BMP180;11824;51.178;13.546;2023-02-18T07:15:52;100364.00;;;9.30
4421;BMP180;11824;51.178;13.546;2023-02-18T07:18:19;100362.00;;;9.30
4421;BMP180;11824;51.178;13.546;2023-02-18T07:20:46;100346.00;;;9.30
4421;BMP180;11824;51.178;13.546;2023-02-18T07:23:14;100354.00;;;9.30
4421;BMP180;11824;51.178;13.546;2023-02-18T07:25:42;100350.00;;;9.40
4421;BMP180;11824;51.178;13.546;2023-02-18T07:28:11;100348.00;;;9.40
4421;BMP180;11824;51.178;13.546;2023-02-18T07:30:38;100343.00;;;9.40
4421;BMP180;11824;51.178;13.546;2023-02-18T07:33:06;100341.00;;;9.40
4421;BMP180;11824;51.178;13.546;2023-02-18T07:35:33;100326.00;;;9.40
4421;BMP180;11824;51.178;13.546;2023-02-18T07:38:00;100330.00;;;9.40
4421;BMP180;11824;51.178;13.546;2023-02-18T07:40:29;100330.00;;;9.40
4421;BMP180;11824;51.178;13.546;2023-02-18T07:42:56;100313.00;;;9.40
4421;BMP180;11824;51.178;13.546;2023-02-18T07:45:24;100316.00;;;9.40
4421;BMP180;11824;51.178;13.546;2023-02-18T07:47:51;100311.00;;;9.40
4421;BMP180;11824;51.178;13.546;2023-02-18T07:50:19;100306.00;;;9.40
4421;BMP180;11824;51.178;13.546;2023-02-18T07:52:46;100310.00;;;9.40
4421;BMP180;11824;51.178;13.546;2023-02-18T07:55:13;100297.00;;;9.40
4421;BMP180;11824;51.178;13.546;2023-02-18T07:57:41;100293.00;;;9.40
4421;BMP180;11824;51.178;13.546;2023-02-18T08:00:23;100300.00;;;9.40
4421;BMP180;11824;51.178;13.546;2023-02-18T08:02:51;100292.00;;;9.40
4421;BMP180;11824;51.178;13.546;2023-02-18T08:05:18;100290.00;;;9.40
4421;BMP180;11824;51.178;13.546;2023-02-18T08:07:45;100281.00;;;9.40
4421;BMP180;11824;51.178;13.546;2023-02-18T08:10:13;100270.00;;;9.40
4421;BMP180;11824;51.178;13.546;2023-02-18T08:12:40;100274.00;;;9.40
4421;BMP180;11824;51.178;13.546;2023-02-18T08:15:08;100272.00;;;9.50
4421;BMP180;11824;51.178;13.546;2023-02-18T08:17:36;100274.00;;;9.50
4421;BMP180;11824;51.178;13.546;2023-02-18T08:20:04;100255.00;;;9.50
4421;BMP180;11824;51.178;13.546;2023-02-18T08:22:31;100261.00;;;9.50
4421;BMP180;11824;51.178;13.546;2023-02-18T08:24:59;100262.00;;;9.50
4421;BMP180;11824;51.178;13.546;2023-02-18T08:27:26;100254.00;;;9.50
4421;BMP180;11824;51.178;13.546;2023-02-18T08:29:54;100237.00;;;9.60
4421;BMP180;11824;51.178;13.546;2023-02-18T08:32:22;100234.00;;;9.60
4421;BMP180;11824;51.178;13.546;2023-02-18T08:34:49;100234.00;;;9.60
4421;BMP180;11824;51.178;13.546;2023-02-18T08:37:16;100230.00;;;9.60
4421;BMP180;11824;51.178;13.546;2023-02-18T08:39:43;100232.00;;;9.70
4421;BMP180;11824;51.178;13.546;2023-02-18T08:42:11;100229.00;;;9.70
4421;BMP180;11824;51.178;13.546;2023-02-18T08:44:38;100212.00;;;9.70
4421;BMP180;11824;51.178;13.546;2023-02-18T08:47:06;100213.00;;;9.80
4421;BMP180;11824;51.178;13.546;2023-02-18T08:49:53;100217.00;;;9.80
4421;BMP180;11824;51.178;13.546;2023-02-18T08:52:21;100205.00;;;9.80
4421;BMP180;11824;51.178;13.546;2023-02-18T08:54:48;100197.00;;;9.80
4421;BMP180;11824;51.178;13.546;2023-02-18T08:57:15;100193.00;;;9.90
4421;BMP180;11824;51.178;13.546;2023-02-18T08:59:43;100187.00;;;9.90
4421;BMP180;11824;51.178;13.546;2023-02-18T09:02:12;100194.00;;;9.90
4421;BMP180;11824;51.178;13.546;2023-02-18T09:04:40;100177.00;;;9.90
4421;BMP180;11824;51.178;13.546;2023-02-18T09:07:08;100185.00;;;10.00
4421;BMP180;11824;51.178;13.546;2023-02-18T09:09:35;100175.00;;;10.00
4421;BMP180;11824;51.178;13.546;2023-02-18T09:12:03;100174.00;;;10.10
4421;BMP180;11824;51.178;13.546;2023-02-18T09:14:30;100161.00;;;10.10
4421;BMP180;11824;51.178;13.546;2023-02-18T09:16:58;100163.00;;;10.20
4421;BMP180;11824;51.178;13.546;2023-02-18T09:19:26;100169.00;;;10.20
4421;BMP180;11824;51.178;13.546;2023-02-18T09:21:53;100159.00;;;10.30
4421;BMP180;11824;51.178;13.546;2023-02-18T09:24:23;100152.00;;;10.30
4421;BMP180;11824;51.178;13.546;2023-02-18T09:26:50;100143.00;;;10.40
4421;BMP180;11824;51.178;13.546;2023-02-18T09:29:18;100133.00;;;10.40
4421;BMP180;11824;51.178;13.546;2023-02-18T09:31:45;100142.00;;;10.50
4421;BMP180;11824;51.178;13.546;2023-02-18T09:34:13;100133.00;;;10.50
4421;BMP180;11824;51.178;13.546;2023-02-18T09:36:41;100129.00;;;10.60
4421;BMP180;11824;51.178;13.546;2023-02-18T09:39:08;100132.00;;;10.60
4421;BMP180;11824;51.178;13.546;2023-02-18T09:41:42;100129.00;;;10.70
4421;BMP180;11824;51.178;13.546;2023-02-18T09:44:15;100121.00;;;10.70
4421;BMP180;11824;51.178;13.546;2023-02-18T09:46:49;100120.00;;;10.80
4421;BMP180;11824;51.178;13.546;2023-02-18T09:49:20;100115.00;;;10.80
4421;BMP180;11824;51.178;13.546;2023-02-18T09:51:49;100116.00;;;10.80
4421;BMP180;11824;51.178;13.546;2023-02-18T09:54:18;100109.00;;;10.90
4421;BMP180;11824;51.178;13.546;2023-02-18T09:56:46;100101.00;;;10.90
4421;BMP180;11824;51.178;13.546;2023-02-18T09:59:17;100094.00;;;11.00
4421;BMP180;11824;51.178;13.546;2023-02-18T10:01:46;100085.00;;;11.00
4421;BMP180;11824;51.178;13.546;2023-02-18T10:04:17;100092.00;;;11.10
4421;BMP180;11824;51.178;13.546;2023-02-18T10:06:46;100083.00;;;11.20
4421;BMP180;11824;51.178;13.546;2023-02-18T10:09:19;100086.00;;;11.40
4421;BMP180;11824;51.178;13.546;2023-02-18T10:11:49;100094.00;;;11.40
4421;BMP180;11824;51.178;13.546;2023-02-18T10:14:18;100078.00;;;11.50
4421;BMP180;11824;51.178;13.546;2023-02-18T10:16:46;100067.00;;;11.50
4421;BMP180;11824;51.178;13.546;2023-02-18T10:19:22;100061.00;;;11.60
4421;BMP180;11824;51.178;13.546;2023-02-18T10:21:51;100057.00;;;11.60
4421;BMP180;11824;51.178;13.546;2023-02-18T10:24:28;100048.00;;;11.70
4421;BMP180;11824;51.178;13.546;2023-02-18T10:26:57;100052.00;;;11.80
4421;BMP180;11824;51.178;13.546;2023-02-18T10:29:27;100058.00;;;11.90
4421;BMP180;11824;51.178;13.546;2023-02-18T10:31:58;100052.00;;;12.00
4421;BMP180;11824;51.178;13.546;2023-02-18T10:34:39;100047.00;;;12.10
4421;BMP180;11824;51.178;13.546;2023-02-18T10:37:18;100042.00;;;12.10
4421;BMP180;11824;51.178;13.546;2023-02-18T10:39:59;100046.00;;;12.10
4421;BMP180;11824;51.178;13.546;2023-02-18T10:42:36;100047.00;;;12.10
4421;BMP180;11824;51.178;13.546;2023-02-18T10:45:16;100032.00;;;12.10
4421;BMP180;11824;51.178;13.546;2023-02-18T10:47:52;100025.00;;;12.10
4421;BMP180;11824;51.178;13.546;2023-02-18T10:50:27;100010.00;;;12.10
4421;BMP180;11824;51.178;13.546;2023-02-18T10:52:58;100008.00;;;12.10
4421;BMP180;11824;51.178;13.546;2023-02-18T10:55:36;100004.00;;;12.10
4421;BMP180;11824;51.178;13.546;2023-02-18T10:58:09;99988.00;;;12.10
4421;BMP180;11824;51.178;13.546;2023-02-18T11:00:49;99979.00;;;12.20
4421;BMP180;11824;51.178;13.546;2023-02-18T11:03:19;99977.00;;;12.20
4421;BMP180;11824;51.178;13.546;2023-02-18T11:05:49;99973.00;;;12.30
4421;BMP180;11824;51.178;13.546;2023-02-18T11:08:19;99964.00;;;12.30
4421;BMP180;11824;51.178;13.546;2023-02-18T11:10:48;99944.00;;;12.30
4421;BMP180;11824;51.178;13.546;2023-02-18T11:13:22;99946.00;;;12.30
4421;BMP180;11824;51.178;13.546;2023-02-18T11:15:56;99953.00;;;12.30
4421;BMP180;11824;51.178;13.546;2023-02-18T11:18:32;99940.00;;;12.40
4421;BMP180;11824;51.178;13.546;2023-02-18T11:21:04;99941.00;;;12.40
4421;BMP180;11824;51.178;13.546;2023-02-18T11:23:32;99937.00;;;12.50
4421;BMP180;11824;51.178;13.546;2023-02-18T11:26:15;99926.00;;;12.50
4421;BMP180;11824;51.178;13.546;2023-02-18T11:28:45;99937.00;;;12.60
4421;BMP180;11824;51.178;13.546;2023-02-18T11:31:19;99927.00;;;12.60
4421;BMP180;11824;51.178;13.546;2023-02-18T11:33:50;99925.00;;;12.70
4421;BMP180;11824;51.178;13.546;2023-02-18T11:36:22;99918.00;;;12.70
4421;BMP180;11824;51.178;13.546;2023-02-18T11:38:52;99907.00;;;12.80
4421;BMP180;11824;51.178;13.546;2023-02-18T11:41:31;99911.00;;;12.80
4421;BMP180;11824;51.178;13.546;2023-02-18T11:43:59;99897.00;;;12.80
4421;BMP180;11824;51.178;13.546;2023-02-18T11:46:27;99901.00;;;12.90
4421;BMP180;11824;51.178;13.546;2023-02-18T11:48:55;99891.00;;;12.90
4421;BMP180;11824;51.178;13.546;2023-02-18T11:51:39;99892.00;;;12.90
4421;BMP180;11824;51.178;13.546;2023-02-18T11:54:22;99886.00;;;12.90
4421;BMP180;11824;51.178;13.546;2023-02-18T11:56:56;99881.00;;;12.90
4421;BMP180;11824;51.178;13.546;2023-02-18T11:59:24;99879.00;;;12.90
4421;BMP180;11824;51.178;13.546;2023-02-18T12:01:55;99879.00;;;12.90
4421;BMP180;11824;51.178;13.546;2023-02-18T12:04:29;99882.00;;;12.90
4421;BMP180;11824;51.178;13.546;2023-02-18T12:07:06;99881.00;;;12.90
4421;BMP180;11824;51.178;13.546;2023-02-18T12:09:41;99880.00;;;12.90
4421;BMP180;11824;51.178;13.546;2023-02-18T12:12:14;99868.00;;;12.90
4421;BMP180;11824;51.178;13.546;2023-02-18T12:14:43;99879.00;;;12.90
4421;BMP180;11824;51.178;13.546;2023-02-18T12:17:41;99879.00;;;12.90
4421;BMP180;11824;51.178;13.546;2023-02-18T12:20:23;99864.00;;;12.90
4421;BMP180;11824;51.178;13.546;2023-02-18T12:23:00;99885.00;;;12.90
4421;BMP180;11824;51.178;13.546;2023-02-18T12:25:39;99870.00;;;12.80
4421;BMP180;11824;51.178;13.546;2023-02-18T12:28:25;99873.00;;;12.80
4421;BMP180;11824;51.178;13.546;2023-02-18T12:31:08;99885.00;;;12.70
4421;BMP180;11824;51.178;13.546;2023-02-18T12:33:47;99874.00;;;12.70
4421;BMP180;11824;51.178;13.546;2023-02-18T12:36:27;99890.00;;;12.60
4421;BMP180;11824;51.178;13.546;2023-02-18T12:39:11;99895.00;;;12.60
4421;BMP180;11824;51.178;13.546;2023-02-18T12:42:07;99888.00;;;12.60
4421;BMP180;11824;51.178;13.546;2023-02-18T12:44:40;99885.00;;;12.50
4421;BMP180;11824;51.178;13.546;2023-02-18T12:47:25;99894.00;;;12.50
4421;BMP180;11824;51.178;13.546;2023-02-18T12:53:29;99893.00;;;12.40
4421;BMP180;11824;51.178;13.546;2023-02-18T12:56:24;99885.00;;;12.40
4421;BMP180;11824;51.178;13.546;2023-02-18T12:59:02;99899.00;;;12.50
4421;BMP180;11824;51.178;13.546;2023-02-18T13:01:41;99894.00;;;12.60
4421;BMP180;11824;51.178;13.546;2023-02-18T13:04:36;99891.00;;;12.60
4421;BMP180;11824;51.178;13.546;2023-02-18T13:10:16;99876.00;;;12.50
4421;BMP180;11824;51.178;13.546;2023-02-18T13:12:53;99875.00;;;12.50
4421;BMP180;11824;51.178;13.546;2023-02-18T13:15:27;99863.00;;;12.40
4421;BMP180;11824;51.178;13.546;2023-02-18T13:18:00;99857.00;;;12.40
4421;BMP180;11824;51.178;13.546;2023-02-18T13:20:35;99858.00;;;12.40
4421;BMP180;11824;51.178;13.546;2023-02-18T13:23:04;99857.00;;;12.40
4421;BMP180;11824;51.178;13.546;2023-02-18T13:25:34;99863.00;;;12.30
4421;BMP180;11824;51.178;13.546;2023-02-18T13:28:14;99853.00;;;12.30
4421;BMP180;11824;51.178;13.546;2023-02-18T13:30:48;99844.00;;;12.30
4421;BMP180;11824;51.178;13.546;2023-02-18T13:33:22;99868.00;;;12.20
4421;BMP180;11824;51.178;13.546;2023-02-18T13:35:59;99874.00;;;12.20
4421;BMP180;11824;51.178;13.546;2023-02-18T13:38:55;99880.00;;;12.20
4421;BMP180;11824;51.178;13.546;2023-02-18T13:41:25;99881.00;;;12.10
4421;BMP180;11824;51.178;13.546;2023-02-18T13:43:53;99882.00;;;12.10
4421;BMP180;11824;51.178;13.546;2023-02-18T13:46:21;99872.00;;;12.00
4421;BMP180;11824;51.178;13.546;2023-02-18T13:48:51;99882.00;;;12.00
4421;BMP180;11824;51.178;13.546;2023-02-18T13:51:28;99884.00;;;12.00
4421;BMP180;11824;51.178;13.546;2023-02-18T13:54:00;99873.00;;;11.90
4421;BMP180;11824;51.178;13.546;2023-02-18T13:56:30;99860.00;;;11.90
4421;BMP180;11824;51.178;13.546;2023-02-18T13:59:00;99858.00;;;11.90
4421;BMP180;11824;51.178;13.546;2023-02-18T14:01:39;99868.00;;;11.90
4421;BMP180;11824;51.178;13.546;2023-02-18T14:07:28;99861.00;;;11.90
4421;BMP180;11824;51.178;13.546;2023-02-18T14:10:09;99874.00;;;11.90
4421;BMP180;11824;51.178;13.546;2023-02-18T14:13:22;99883.00;;;11.90
4421;BMP180;11824;51.178;13.546;2023-02-18T14:15:57;99867.00;;;11.90
4421;BMP180;11824;51.178;13.546;2023-02-18T14:18:31;99866.00;;;11.90
4421;BMP180;11824;51.178;13.546;2023-02-18T14:21:20;99867.00;;;11.90
4421;BMP180;11824;51.178;13.546;2023-02-18T14:24:00;99856.00;;;11.90
4421;BMP180;11824;51.178;13.546;2023-02-18T14:26:33;99866.00;;;11.90
4421;BMP180;11824;51.178;13.546;2023-02-18T14:29:05;99868.00;;;11.90
4421;BMP180;11824;51.178;13.546;2023-02-18T14:31:36;99863.00;;;11.90
4421;BMP180;11824;51.178;13.546;2023-02-18T14:43:18;99881.00;;;11.90
4421;BMP180;11824;51.178;13.546;2023-02-18T14:46:06;99879.00;;;11.90
4421;BMP180;11824;51.178;13.546;2023-02-18T14:48:51;99858.00;;;12.00
4421;BMP180;11824;51.178;13.546;2023-02-18T14:51:24;99884.00;;;12.00
4421;BMP180;11824;51.178;13.546;2023-02-18T14:53:53;99893.00;;;12.00
4421;BMP180;11824;51.178;13.546;2023-02-18T14:56:21;99904.00;;;11.90
4421;BMP180;11824;51.178;13.546;2023-02-18T14:58:51;99870.00;;;11.90